Childress, Texas
Current Conditions -  °F | °C
As of 5:53 AM on Sunday 23 Nov 2014 (Local Time) from KCDS Reporting Station
Clear Clear  
Wind Chill: 42°   Ceiling: Unl
Heat Index: 47°   Visibility: 10mi
Dew Point: 41°   Wind: 10mph
Humidity: 80%   Direction: 230°SW
Pressure: 29.46"   Gusts: NA
Location:  34.43°N, 100.21°W
Report Text: KCDS 231153Z AUTO 23009KT 10SM CLR 08/05 A2946 RMK AO2 SLP969 T00830050 10106 20072 56014
Loading
Personal Weather Stations






























Interactive Weather Map New forecast layout! Learn more

10-Day Weather Forecast

Advertisements
Track Severe Weather on mobile